createdAt,value
2018-04-07T00:03:39.345Z,57.37
2018-04-07T00:09:44.481Z,57.53
2018-04-07T00:15:48.801Z,59.09
2018-04-07T00:21:53.138Z,59.65
2018-04-07T00:27:57.473Z,59.90
2018-04-07T00:34:01.793Z,60.32
2018-04-07T00:40:06.140Z,61.29
2018-04-07T00:46:10.491Z,61.49
2018-04-07T00:52:14.809Z,61.08
2018-04-07T00:58:19.149Z,59.04
2018-04-07T01:04:23.486Z,58.96
2018-04-07T01:10:28.620Z,59.09
2018-04-07T01:16:32.957Z,58.94
2018-04-07T01:22:37.285Z,59.71
2018-04-07T01:28:41.609Z,59.15
2018-04-07T01:34:45.971Z,59.40
2018-04-07T01:40:50.328Z,59.71
2018-04-07T01:46:54.646Z,59.02
2018-04-07T01:52:58.976Z,59.41
2018-04-07T01:59:03.305Z,59.75
2018-04-07T02:05:07.631Z,58.62
2018-04-07T02:11:11.965Z,58.63
2018-04-07T02:17:16.292Z,59.15
2018-04-07T02:23:21.389Z,59.55
2018-04-07T02:29:25.718Z,60.32
2018-04-07T02:35:30.069Z,61.04
2018-04-07T02:41:34.427Z,61.15
2018-04-07T02:47:38.748Z,61.82
2018-04-07T02:53:43.130Z,62.01
2018-04-07T02:59:47.450Z,62.39
2018-04-07T03:05:51.808Z,62.11
2018-04-07T03:11:56.153Z,61.92
2018-04-07T03:18:00.485Z,62.21
2018-04-07T03:24:04.839Z,62.41
2018-04-07T03:30:09.944Z,62.71
2018-04-07T03:36:14.301Z,62.70
2018-04-07T03:42:18.635Z,63.37
2018-04-07T03:48:22.970Z,63.42
2018-04-07T03:54:27.345Z,63.45
2018-04-07T04:00:31.666Z,63.01
2018-04-07T04:06:35.985Z,62.84
2018-04-07T04:12:40.318Z,62.07
2018-04-07T04:18:45.009Z,60.81
2018-04-07T04:24:49.342Z,60.58
2018-04-07T04:30:53.684Z,60.79
2018-04-07T04:36:58.036Z,60.75
2018-04-07T04:43:02.377Z,61.19
2018-04-07T04:49:06.711Z,61.24
2018-04-07T04:55:11.041Z,61.13
2018-04-07T05:01:15.364Z,60.01
2018-04-07T05:07:19.706Z,61.49
2018-04-07T05:13:24.029Z,62.04
2018-04-07T05:19:28.356Z,60.65
2018-04-07T05:25:32.689Z,58.58
2018-04-07T05:31:37.808Z,58.64
2018-04-07T05:37:42.135Z,55.93
2018-04-07T05:43:46.484Z,56.08
2018-04-07T05:49:50.811Z,56.10
2018-04-07T05:55:55.135Z,55.98
2018-04-07T06:01:59.478Z,55.97
2018-04-07T06:08:03.807Z,55.52
2018-04-07T06:14:08.122Z,54.18
2018-04-07T06:20:13.214Z,54.16
2018-04-07T06:26:17.532Z,54.61
2018-04-07T06:32:21.880Z,53.41
2018-04-07T06:38:26.226Z,53.36
2018-04-07T06:44:30.549Z,52.26
2018-04-07T06:50:35.650Z,48.98
2018-04-07T06:56:39.994Z,38.46
2018-04-07T07:02:44.343Z,32.10
2018-04-07T07:08:48.687Z,28.71
2018-04-07T07:14:53.041Z,30.12
2018-04-07T07:20:57.405Z,37.74
2018-04-07T07:27:02.520Z,39.82
2018-04-07T07:33:07.796Z,41.62
2018-04-07T07:39:12.133Z,43.71
2018-04-07T07:45:16.481Z,41.87
2018-04-07T07:51:20.825Z,41.84
2018-04-07T07:57:25.241Z,40.56
2018-04-07T08:03:29.575Z,42.04
2018-04-07T08:09:33.924Z,41.99
2018-04-07T08:15:38.281Z,39.18
2018-04-07T08:21:42.685Z,38.92
2018-04-07T08:27:47.012Z,40.13
2018-04-07T08:33:51.348Z,39.88
2018-04-07T08:39:55.702Z,38.14
2018-04-07T08:46:00.042Z,36.70
2018-04-07T08:52:04.391Z,37.36
2018-04-07T08:58:08.733Z,36.48
2018-04-07T09:04:13.074Z,36.73
2018-04-07T09:10:17.405Z,34.91
2018-04-07T09:16:21.749Z,34.82
2018-04-07T09:22:26.110Z,33.46
2018-04-07T09:28:30.881Z,33.14
2018-04-07T09:34:35.206Z,30.58
2018-04-07T09:40:39.568Z,27.82
2018-04-07T09:46:43.919Z,26.52
2018-04-07T09:52:48.258Z,26.88
2018-04-07T09:58:52.632Z,26.52
2018-04-07T10:04:56.969Z,25.74
2018-04-07T10:11:01.319Z,24.10
2018-04-07T10:17:06.637Z,22.76
2018-04-07T10:23:10.995Z,21.88
2018-04-07T10:29:16.091Z,21.05
2018-04-07T10:35:20.440Z,20.49
2018-04-07T10:41:24.768Z,20.71
2018-04-07T10:47:29.142Z,20.24
2018-04-07T10:53:33.487Z,20.21
2018-04-07T10:59:37.834Z,18.53
2018-04-07T11:05:42.169Z,18.95
2018-04-07T11:11:46.518Z,20.01
2018-04-07T11:17:50.858Z,19.34
2018-04-07T11:23:55.203Z,18.84
2018-04-07T11:29:59.587Z,18.92
2018-04-07T11:36:04.701Z,17.92
2018-04-07T11:42:09.041Z,17.51
2018-04-07T11:48:13.399Z,16.22
2018-04-07T11:54:18.578Z,18.86
2018-04-07T12:00:23.699Z,18.75
2018-04-07T12:06:28.041Z,18.11
2018-04-07T12:12:32.390Z,17.74
2018-04-07T12:18:36.715Z,16.42
2018-04-07T12:24:41.057Z,16.78
2018-04-07T12:30:45.406Z,16.59
2018-04-07T12:36:49.744Z,15.94
2018-04-07T12:42:54.132Z,17.75
2018-04-07T12:48:59.218Z,19.10
2018-04-07T12:55:03.574Z,17.84
2018-04-07T13:01:07.959Z,17.83
2018-04-07T13:07:13.062Z,18.49
2018-04-07T13:13:17.406Z,18.05
2018-04-07T13:19:21.745Z,16.38
2018-04-07T13:25:26.089Z,15.98
2018-04-07T13:31:30.460Z,14.55
2018-04-07T13:37:34.826Z,15.16
2018-04-07T13:43:39.163Z,15.47
2018-04-07T13:49:44.269Z,15.64
2018-04-07T13:55:48.613Z,16.40
2018-04-07T14:01:52.958Z,15.62
2018-04-07T14:07:57.316Z,15.53
2018-04-07T14:14:01.647Z,15.28
2018-04-07T14:20:05.997Z,14.79
2018-04-07T14:26:10.342Z,13.82
2018-04-07T14:32:14.697Z,13.95
2018-04-07T14:38:19.802Z,15.39
2018-04-07T14:44:24.133Z,14.27
2018-04-07T14:50:28.488Z,14.35
2018-04-07T14:56:32.852Z,14.83
2018-04-07T15:02:37.198Z,14.74
2018-04-07T15:08:41.533Z,14.95
2018-04-07T15:14:45.876Z,14.77
2018-04-07T15:20:50.239Z,14.95
2018-04-07T15:26:55.342Z,13.99
2018-04-07T15:32:59.695Z,14.72
2018-04-07T15:39:04.044Z,13.52
2018-04-07T15:45:08.439Z,13.78
2018-04-07T15:51:13.668Z,15.64
2018-04-07T15:57:18.043Z,14.93
2018-04-07T16:03:23.222Z,15.53
2018-04-07T16:09:27.651Z,14.06
2018-04-07T16:15:32.825Z,14.40
2018-04-07T16:21:37.214Z,15.26
2018-04-07T16:27:41.550Z,14.51
2018-04-07T16:33:45.907Z,14.80
2018-04-07T16:39:51.037Z,14.21
2018-04-07T16:45:55.394Z,15.08
2018-04-07T16:51:59.739Z,14.93
2018-04-07T16:58:04.077Z,15.22
2018-04-07T17:04:08.409Z,16.57
2018-04-07T17:10:13.259Z,17.19
2018-04-07T17:16:17.594Z,20.17
2018-04-07T17:22:21.934Z,21.48
2018-04-07T17:28:26.289Z,23.28
2018-04-07T17:34:30.629Z,24.81
2018-04-07T17:40:34.997Z,27.04
2018-04-07T17:46:40.105Z,28.62
2018-04-07T17:52:44.455Z,30.56
2018-04-07T17:58:48.811Z,33.12
2018-04-07T18:04:54.106Z,34.21
2018-04-07T18:10:58.449Z,35.64
2018-04-07T18:17:02.797Z,35.76
2018-04-07T18:23:07.147Z,37.02
2018-04-07T18:29:11.485Z,38.59
2018-04-07T18:35:15.865Z,40.34
2018-04-07T18:41:20.226Z,41.39
2018-04-07T18:47:24.569Z,41.98
2018-04-07T18:53:28.935Z,44.12
2018-04-07T18:59:33.298Z,44.34
2018-04-07T19:05:37.703Z,45.34
2018-04-07T19:11:42.821Z,47.18
2018-04-07T19:17:47.182Z,48.29
2018-04-07T19:23:51.534Z,49.24
2018-04-07T19:29:55.886Z,50.38
2018-04-07T19:36:01.031Z,51.26
2018-04-07T19:42:05.377Z,51.22
2018-04-07T19:48:09.725Z,51.41
2018-04-07T19:54:14.829Z,51.50
2018-04-07T20:00:19.190Z,51.52
2018-04-07T20:06:23.570Z,51.54
2018-04-07T20:12:28.707Z,51.71
2018-04-07T20:18:33.063Z,52.40
2018-04-07T20:24:38.182Z,52.69
2018-04-07T20:30:42.554Z,52.34
2018-04-07T20:36:46.906Z,51.67
2018-04-07T20:42:52.053Z,50.93
2018-04-07T20:48:56.407Z,51.21
2018-04-07T20:55:00.769Z,51.41
2018-04-07T21:01:05.128Z,51.91
2018-04-07T21:07:09.482Z,52.26
2018-04-07T21:13:13.845Z,52.91
2018-04-07T21:19:18.214Z,53.38
2018-04-07T21:25:22.573Z,54.61
2018-04-07T21:31:26.918Z,54.99
2018-04-07T21:37:31.279Z,55.45
2018-04-07T21:43:35.622Z,55.34
2018-04-07T21:49:39.970Z,56.62
2018-04-07T21:55:44.311Z,57.13
2018-04-07T22:01:48.720Z,57.32
2018-04-07T22:07:53.082Z,57.91
2018-04-07T22:13:57.424Z,58.69
2018-04-07T22:20:01.786Z,59.03
2018-04-07T22:26:06.159Z,59.58
2018-04-07T22:32:11.283Z,60.07
2018-04-07T22:38:15.627Z,60.55
2018-04-07T22:44:19.991Z,61.28
2018-04-07T22:50:24.368Z,61.61
2018-04-07T22:56:28.720Z,61.23
2018-04-07T23:02:33.071Z,61.56
2018-04-07T23:08:37.408Z,61.31
2018-04-07T23:14:41.770Z,62.00
2018-04-07T23:20:46.135Z,62.07
2018-04-07T23:26:50.465Z,62.44
2018-04-07T23:32:54.823Z,62.89
2018-04-07T23:38:59.178Z,62.77
2018-04-07T23:45:03.545Z,63.25
2018-04-07T23:51:07.900Z,63.13
2018-04-07T23:57:12.259Z,63.56
